sensor_id;sensor_type;location;lat;lon;timestamp;pressure;altitude;pressure_sealevel;temperature
79714;BMP280;69206;51.420;5.400;2023-05-29T00:00:30;102252.59;;;14.68
79714;BMP280;69206;51.420;5.400;2023-05-29T00:02:55;102213.44;;;14.32
79714;BMP280;69206;51.420;5.400;2023-05-29T00:05:20;102263.25;;;14.57
79714;BMP280;69206;51.420;5.400;2023-05-29T00:07:46;102256.97;;;14.49
79714;BMP280;69206;51.420;5.400;2023-05-29T00:10:12;102260.97;;;14.32
79714;BMP280;69206;51.420;5.400;2023-05-29T00:12:38;102255.38;;;14.26
79714;BMP280;69206;51.420;5.400;2023-05-29T00:15:04;102252.94;;;14.34
79714;BMP280;69206;51.420;5.400;2023-05-29T00:17:30;102252.91;;;14.24
79714;BMP280;69206;51.420;5.400;2023-05-29T00:19:59;102255.88;;;14.31
79714;BMP280;69206;51.420;5.400;2023-05-29T00:22:27;102268.31;;;14.19
79714;BMP280;69206;51.420;5.400;2023-05-29T00:24:52;102263.31;;;14.05
79714;BMP280;69206;51.420;5.400;2023-05-29T00:27:17;102233.53;;;13.72
79714;BMP280;69206;51.420;5.400;2023-05-29T00:29:43;102274.28;;;13.90
79714;BMP280;69206;51.420;5.400;2023-05-29T00:32:09;102263.41;;;13.83
79714;BMP280;69206;51.420;5.400;2023-05-29T00:34:35;102277.81;;;13.79
79714;BMP280;69206;51.420;5.400;2023-05-29T00:37:00;102286.84;;;13.97
79714;BMP280;69206;51.420;5.400;2023-05-29T00:39:26;102231.84;;;13.50
79714;BMP280;69206;51.420;5.400;2023-05-29T00:41:52;102277.97;;;13.67
79714;BMP280;69206;51.420;5.400;2023-05-29T00:44:18;102275.22;;;13.68
79714;BMP280;69206;51.420;5.400;2023-05-29T00:46:44;102246.50;;;13.43
79714;BMP280;69206;51.420;5.400;2023-05-29T00:49:10;102284.25;;;13.55
79714;BMP280;69206;51.420;5.400;2023-05-29T00:51:37;102275.47;;;13.54
79714;BMP280;69206;51.420;5.400;2023-05-29T00:54:04;102282.09;;;13.49
79714;BMP280;69206;51.420;5.400;2023-05-29T00:56:30;102290.13;;;13.36
79714;BMP280;69206;51.420;5.400;2023-05-29T00:58:55;102278.66;;;13.26
79714;BMP280;69206;51.420;5.400;2023-05-29T01:01:20;102277.56;;;13.18
79714;BMP280;69206;51.420;5.400;2023-05-29T01:03:46;102300.31;;;13.30
79714;BMP280;69206;51.420;5.400;2023-05-29T01:06:14;102302.28;;;13.28
79714;BMP280;69206;51.420;5.400;2023-05-29T01:08:39;102306.22;;;13.33
79714;BMP280;69206;51.420;5.400;2023-05-29T01:11:13;102310.97;;;13.28
79714;BMP280;69206;51.420;5.400;2023-05-29T01:13:45;102272.19;;;13.08
79714;BMP280;69206;51.420;5.400;2023-05-29T01:16:15;102275.00;;;12.83
79714;BMP280;69206;51.420;5.400;2023-05-29T01:18:57;102308.38;;;13.06
79714;BMP280;69206;51.420;5.400;2023-05-29T01:24:14;102301.31;;;13.07
79714;BMP280;69206;51.420;5.400;2023-05-29T01:29:15;102305.59;;;12.86
79714;BMP280;69206;51.420;5.400;2023-05-29T01:31:42;102307.63;;;12.93
79714;BMP280;69206;51.420;5.400;2023-05-29T01:34:07;102314.06;;;12.78
79714;BMP280;69206;51.420;5.400;2023-05-29T01:36:32;102266.84;;;12.53
79714;BMP280;69206;51.420;5.400;2023-05-29T01:38:59;102314.53;;;12.72
79714;BMP280;69206;51.420;5.400;2023-05-29T01:41:25;102282.38;;;12.45
79714;BMP280;69206;51.420;5.400;2023-05-29T01:43:51;102317.28;;;12.71
79714;BMP280;69206;51.420;5.400;2023-05-29T01:46:18;102313.56;;;12.62
79714;BMP280;69206;51.420;5.400;2023-05-29T01:48:45;102319.44;;;12.66
79714;BMP280;69206;51.420;5.400;2023-05-29T01:51:11;102275.41;;;12.33
79714;BMP280;69206;51.420;5.400;2023-05-29T01:53:40;102327.69;;;12.61
79714;BMP280;69206;51.420;5.400;2023-05-29T01:56:06;102331.88;;;12.64
79714;BMP280;69206;51.420;5.400;2023-05-29T01:58:34;102320.97;;;12.57
79714;BMP280;69206;51.420;5.400;2023-05-29T02:01:00;102325.00;;;12.50
79714;BMP280;69206;51.420;5.400;2023-05-29T02:03:26;102328.63;;;12.49
79714;BMP280;69206;51.420;5.400;2023-05-29T02:05:55;102327.44;;;12.53
79714;BMP280;69206;51.420;5.400;2023-05-29T02:08:21;102323.38;;;12.49
79714;BMP280;69206;51.420;5.400;2023-05-29T02:10:46;102325.84;;;12.51
79714;BMP280;69206;51.420;5.400;2023-05-29T02:13:11;102323.38;;;12.37
79714;BMP280;69206;51.420;5.400;2023-05-29T02:15:37;102316.03;;;12.42
79714;BMP280;69206;51.420;5.400;2023-05-29T02:18:02;102300.72;;;12.23
79714;BMP280;69206;51.420;5.400;2023-05-29T02:20:28;102318.50;;;12.32
79714;BMP280;69206;51.420;5.400;2023-05-29T02:22:53;102315.53;;;12.13
79714;BMP280;69206;51.420;5.400;2023-05-29T02:25:18;102287.59;;;12.00
79714;BMP280;69206;51.420;5.400;2023-05-29T02:27:44;102325.28;;;12.24
79714;BMP280;69206;51.420;5.400;2023-05-29T02:30:10;102335.28;;;12.19
79714;BMP280;69206;51.420;5.400;2023-05-29T02:32:35;102334.91;;;12.12
79714;BMP280;69206;51.420;5.400;2023-05-29T02:35:01;102331.16;;;12.04
79714;BMP280;69206;51.420;5.400;2023-05-29T02:37:27;102331.72;;;12.20
79714;BMP280;69206;51.420;5.400;2023-05-29T02:39:53;102322.09;;;12.08
79714;BMP280;69206;51.420;5.400;2023-05-29T02:42:18;102340.38;;;12.09
79714;BMP280;69206;51.420;5.400;2023-05-29T02:44:44;102298.41;;;11.84
79714;BMP280;69206;51.420;5.400;2023-05-29T02:47:09;102300.50;;;11.79
79714;BMP280;69206;51.420;5.400;2023-05-29T02:49:34;102334.56;;;11.93
79714;BMP280;69206;51.420;5.400;2023-05-29T02:52:00;102340.22;;;12.00
79714;BMP280;69206;51.420;5.400;2023-05-29T02:54:25;102289.41;;;11.63
79714;BMP280;69206;51.420;5.400;2023-05-29T02:56:51;102343.84;;;11.86
79714;BMP280;69206;51.420;5.400;2023-05-29T02:59:17;102333.50;;;11.96
79714;BMP280;69206;51.420;5.400;2023-05-29T03:01:43;102341.16;;;11.99
79714;BMP280;69206;51.420;5.400;2023-05-29T03:04:09;102347.44;;;11.85
79714;BMP280;69206;51.420;5.400;2023-05-29T03:06:35;102343.66;;;11.77
79714;BMP280;69206;51.420;5.400;2023-05-29T03:09:02;102352.44;;;11.88
79714;BMP280;69206;51.420;5.400;2023-05-29T03:11:27;102355.41;;;11.84
79714;BMP280;69206;51.420;5.400;2023-05-29T03:13:54;102347.25;;;11.76
79714;BMP280;69206;51.420;5.400;2023-05-29T03:16:20;102317.25;;;11.42
79714;BMP280;69206;51.420;5.400;2023-05-29T03:18:46;102345.66;;;11.61
79714;BMP280;69206;51.420;5.400;2023-05-29T03:21:11;102336.09;;;11.60
79714;BMP280;69206;51.420;5.400;2023-05-29T03:23:37;102351.34;;;11.67
79714;BMP280;69206;51.420;5.400;2023-05-29T03:26:03;102348.19;;;11.62
79714;BMP280;69206;51.420;5.400;2023-05-29T03:28:29;102343.25;;;11.45
79714;BMP280;69206;51.420;5.400;2023-05-29T03:30:54;102355.88;;;11.53
79714;BMP280;69206;51.420;5.400;2023-05-29T03:33:20;102348.69;;;11.44
79714;BMP280;69206;51.420;5.400;2023-05-29T03:35:45;102346.97;;;11.43
79714;BMP280;69206;51.420;5.400;2023-05-29T03:38:11;102342.88;;;11.39
79714;BMP280;69206;51.420;5.400;2023-05-29T03:40:36;102354.44;;;11.49
79714;BMP280;69206;51.420;5.400;2023-05-29T03:43:01;102343.72;;;11.39
79714;BMP280;69206;51.420;5.400;2023-05-29T03:45:27;102343.66;;;11.28
79714;BMP280;69206;51.420;5.400;2023-05-29T03:47:52;102352.09;;;11.44
79714;BMP280;69206;51.420;5.400;2023-05-29T03:50:18;102355.72;;;11.43
79714;BMP280;69206;51.420;5.400;2023-05-29T03:52:43;102314.09;;;11.12
79714;BMP280;69206;51.420;5.400;2023-05-29T03:55:09;102370.31;;;11.47
79714;BMP280;69206;51.420;5.400;2023-05-29T03:57:39;102334.69;;;11.18
79714;BMP280;69206;51.420;5.400;2023-05-29T04:00:07;102327.00;;;11.15
79714;BMP280;69206;51.420;5.400;2023-05-29T04:02:34;102363.50;;;11.32
79714;BMP280;69206;51.420;5.400;2023-05-29T04:05:00;102371.88;;;11.37
79714;BMP280;69206;51.420;5.400;2023-05-29T04:07:25;102373.13;;;11.44
79714;BMP280;69206;51.420;5.400;2023-05-29T04:09:50;102378.28;;;11.46
79714;BMP280;69206;51.420;5.400;2023-05-29T04:12:16;102378.09;;;11.49
79714;BMP280;69206;51.420;5.400;2023-05-29T04:14:41;102377.56;;;11.31
79714;BMP280;69206;51.420;5.400;2023-05-29T04:17:07;102383.91;;;11.29
79714;BMP280;69206;51.420;5.400;2023-05-29T04:19:32;102376.75;;;11.43
79714;BMP280;69206;51.420;5.400;2023-05-29T04:21:58;102377.56;;;11.31
79714;BMP280;69206;51.420;5.400;2023-05-29T04:24:23;102391.34;;;11.47
79714;BMP280;69206;51.420;5.400;2023-05-29T04:26:49;102402.63;;;11.37
79714;BMP280;69206;51.420;5.400;2023-05-29T04:29:16;102391.16;;;11.25
79714;BMP280;69206;51.420;5.400;2023-05-29T04:31:42;102397.13;;;11.27
79714;BMP280;69206;51.420;5.400;2023-05-29T04:34:07;102371.38;;;11.32
79714;BMP280;69206;51.420;5.400;2023-05-29T04:36:33;102395.47;;;11.51
79714;BMP280;69206;51.420;5.400;2023-05-29T04:38:59;102386.00;;;11.49
79714;BMP280;69206;51.420;5.400;2023-05-29T04:41:27;102393.56;;;11.53
79714;BMP280;69206;51.420;5.400;2023-05-29T04:43:56;102389.13;;;11.54
79714;BMP280;69206;51.420;5.400;2023-05-29T04:46:22;102394.28;;;11.55
79714;BMP280;69206;51.420;5.400;2023-05-29T04:48:48;102391.97;;;11.63
79714;BMP280;69206;51.420;5.400;2023-05-29T04:51:19;102395.41;;;11.76
79714;BMP280;69206;51.420;5.400;2023-05-29T04:53:45;102390.41;;;11.73
79714;BMP280;69206;51.420;5.400;2023-05-29T04:56:12;102393.13;;;11.72
79714;BMP280;69206;51.420;5.400;2023-05-29T04:58:37;102408.69;;;11.87
79714;BMP280;69206;51.420;5.400;2023-05-29T05:01:03;102397.78;;;12.04
79714;BMP280;69206;51.420;5.400;2023-05-29T05:03:29;102394.94;;;12.07
79714;BMP280;69206;51.420;5.400;2023-05-29T05:05:56;102402.31;;;12.02
79714;BMP280;69206;51.420;5.400;2023-05-29T05:08:22;102361.50;;;11.97
79714;BMP280;69206;51.420;5.400;2023-05-29T05:10:48;102403.28;;;12.25
79714;BMP280;69206;51.420;5.400;2023-05-29T05:13:13;102400.06;;;12.45
79714;BMP280;69206;51.420;5.400;2023-05-29T05:15:39;102401.38;;;12.50
79714;BMP280;69206;51.420;5.400;2023-05-29T05:18:04;102406.06;;;12.58
79714;BMP280;69206;51.420;5.400;2023-05-29T05:20:30;102403.63;;;12.67
79714;BMP280;69206;51.420;5.400;2023-05-29T05:22:55;102399.09;;;12.69
79714;BMP280;69206;51.420;5.400;2023-05-29T05:25:21;102363.34;;;12.31
79714;BMP280;69206;51.420;5.400;2023-05-29T05:27:46;102413.75;;;12.84
79714;BMP280;69206;51.420;5.400;2023-05-29T05:30:12;102407.50;;;12.74
79714;BMP280;69206;51.420;5.400;2023-05-29T05:32:38;102411.28;;;12.70
79714;BMP280;69206;51.420;5.400;2023-05-29T05:35:04;102417.06;;;12.75
79714;BMP280;69206;51.420;5.400;2023-05-29T05:37:29;102361.81;;;12.63
79714;BMP280;69206;51.420;5.400;2023-05-29T05:39:55;102419.28;;;13.03
79714;BMP280;69206;51.420;5.400;2023-05-29T05:42:22;102409.41;;;13.18
79714;BMP280;69206;51.420;5.400;2023-05-29T05:44:47;102414.47;;;12.97
79714;BMP280;69206;51.420;5.400;2023-05-29T05:47:13;102425.09;;;13.19
79714;BMP280;69206;51.420;5.400;2023-05-29T05:49:38;102383.19;;;12.82
79714;BMP280;69206;51.420;5.400;2023-05-29T05:52:04;102426.16;;;13.17
79714;BMP280;69206;51.420;5.400;2023-05-29T05:54:29;102406.09;;;13.03
79714;BMP280;69206;51.420;5.400;2023-05-29T05:56:55;102410.91;;;12.98
79714;BMP280;69206;51.420;5.400;2023-05-29T05:59:20;102379.53;;;12.95
79714;BMP280;69206;51.420;5.400;2023-05-29T06:01:46;102404.22;;;13.16
79714;BMP280;69206;51.420;5.400;2023-05-29T06:04:11;102400.41;;;13.20
79714;BMP280;69206;51.420;5.400;2023-05-29T06:06:37;102413.59;;;13.20
79714;BMP280;69206;51.420;5.400;2023-05-29T06:09:02;102417.44;;;13.27
79714;BMP280;69206;51.420;5.400;2023-05-29T06:11:30;102416.34;;;13.19
79714;BMP280;69206;51.420;5.400;2023-05-29T06:13:55;102370.41;;;12.99
79714;BMP280;69206;51.420;5.400;2023-05-29T06:16:21;102407.97;;;13.25
79714;BMP280;69206;51.420;5.400;2023-05-29T06:18:46;102411.91;;;13.41
79714;BMP280;69206;51.420;5.400;2023-05-29T06:21:12;102428.50;;;13.43
79714;BMP280;69206;51.420;5.400;2023-05-29T06:23:37;102345.84;;;12.88
79714;BMP280;69206;51.420;5.400;2023-05-29T06:26:03;102413.34;;;13.34
79714;BMP280;69206;51.420;5.400;2023-05-29T06:28:29;102436.41;;;13.43
79714;BMP280;69206;51.420;5.400;2023-05-29T06:30:55;102430.16;;;13.44
79714;BMP280;69206;51.420;5.400;2023-05-29T06:33:21;102442.00;;;13.17
79714;BMP280;69206;51.420;5.400;2023-05-29T06:35:47;102437.81;;;13.47
79714;BMP280;69206;51.420;5.400;2023-05-29T06:38:13;102409.75;;;13.35
79714;BMP280;69206;51.420;5.400;2023-05-29T06:40:39;102429.44;;;13.75
79714;BMP280;69206;51.420;5.400;2023-05-29T06:43:04;102449.84;;;13.84
79714;BMP280;69206;51.420;5.400;2023-05-29T06:45:30;102411.34;;;13.38
79714;BMP280;69206;51.420;5.400;2023-05-29T06:47:55;102402.59;;;13.37
79714;BMP280;69206;51.420;5.400;2023-05-29T06:50:21;102403.44;;;13.38
79714;BMP280;69206;51.420;5.400;2023-05-29T06:52:46;102458.25;;;13.89
79714;BMP280;69206;51.420;5.400;2023-05-29T06:55:11;102445.25;;;14.19
79714;BMP280;69206;51.420;5.400;2023-05-29T06:57:37;102445.25;;;14.19
79714;BMP280;69206;51.420;5.400;2023-05-29T07:00:04;102438.25;;;14.18
79714;BMP280;69206;51.420;5.400;2023-05-29T07:02:31;102445.38;;;14.38
79714;BMP280;69206;51.420;5.400;2023-05-29T07:04:57;102448.94;;;14.28
79714;BMP280;69206;51.420;5.400;2023-05-29T07:07:22;102443.28;;;14.21
79714;BMP280;69206;51.420;5.400;2023-05-29T07:09:47;102416.16;;;14.30
79714;BMP280;69206;51.420;5.400;2023-05-29T07:12:13;102450.75;;;14.79
79714;BMP280;69206;51.420;5.400;2023-05-29T07:14:38;102445.84;;;14.75
79714;BMP280;69206;51.420;5.400;2023-05-29T07:17:04;102430.78;;;14.86
79714;BMP280;69206;51.420;5.400;2023-05-29T07:19:30;102449.84;;;14.69
79714;BMP280;69206;51.420;5.400;2023-05-29T07:21:57;102449.94;;;14.99
79714;BMP280;69206;51.420;5.400;2023-05-29T07:24:23;102448.28;;;14.98
79714;BMP280;69206;51.420;5.400;2023-05-29T07:26:48;102440.94;;;15.11
79714;BMP280;69206;51.420;5.400;2023-05-29T07:29:14;102450.63;;;15.01
79714;BMP280;69206;51.420;5.400;2023-05-29T07:31:41;102438.28;;;14.81
79714;BMP280;69206;51.420;5.400;2023-05-29T07:34:07;102453.44;;;15.29
79714;BMP280;69206;51.420;5.400;2023-05-29T07:36:32;102461.63;;;15.47
79714;BMP280;69206;51.420;5.400;2023-05-29T07:38:58;102444.41;;;15.62
79714;BMP280;69206;51.420;5.400;2023-05-29T07:41:23;102455.16;;;15.70
79714;BMP280;69206;51.420;5.400;2023-05-29T07:43:49;102412.00;;;15.79
79714;BMP280;69206;51.420;5.400;2023-05-29T07:46:18;102451.59;;;15.90
79714;BMP280;69206;51.420;5.400;2023-05-29T07:48:43;102438.59;;;15.77
79714;BMP280;69206;51.420;5.400;2023-05-29T07:51:10;102459.75;;;16.17
79714;BMP280;69206;51.420;5.400;2023-05-29T07:53:36;102460.31;;;16.39
79714;BMP280;69206;51.420;5.400;2023-05-29T07:56:01;102463.81;;;16.40
79714;BMP280;69206;51.420;5.400;2023-05-29T07:58:27;102421.09;;;16.05
79714;BMP280;69206;51.420;5.400;2023-05-29T08:00:52;102479.28;;;16.35
79714;BMP280;69206;51.420;5.400;2023-05-29T08:03:18;102470.34;;;16.26
79714;BMP280;69206;51.420;5.400;2023-05-29T08:05:43;102464.75;;;16.39
79714;BMP280;69206;51.420;5.400;2023-05-29T08:08:09;102460.59;;;16.65
79714;BMP280;69206;51.420;5.400;2023-05-29T08:10:37;102459.22;;;16.42
79714;BMP280;69206;51.420;5.400;2023-05-29T08:13:02;102473.97;;;16.35
79714;BMP280;69206;51.420;5.400;2023-05-29T08:15:28;102460.03;;;16.61
79714;BMP280;69206;51.420;5.400;2023-05-29T08:17:53;102455.13;;;16.85
79714;BMP280;69206;51.420;5.400;2023-05-29T08:20:19;102460.13;;;17.07
79714;BMP280;69206;51.420;5.400;2023-05-29T08:22:45;102469.34;;;17.13
79714;BMP280;69206;51.420;5.400;2023-05-29T08:25:10;102464.72;;;17.05
79714;BMP280;69206;51.420;5.400;2023-05-29T08:27:36;102467.75;;;17.20
79714;BMP280;69206;51.420;5.400;2023-05-29T08:30:03;102424.78;;;17.07
79714;BMP280;69206;51.420;5.400;2023-05-29T08:32:28;102419.19;;;17.10
79714;BMP280;69206;51.420;5.400;2023-05-29T08:34:53;102454.34;;;17.21
79714;BMP280;69206;51.420;5.400;2023-05-29T08:37:19;102461.34;;;17.22
79714;BMP280;69206;51.420;5.400;2023-05-29T08:39:45;102460.94;;;17.53
79714;BMP280;69206;51.420;5.400;2023-05-29T08:42:14;102429.84;;;17.37
79714;BMP280;69206;51.420;5.400;2023-05-29T08:44:46;102427.97;;;17.46
79714;BMP280;69206;51.420;5.400;2023-05-29T08:47:14;102464.44;;;17.71
79714;BMP280;69206;51.420;5.400;2023-05-29T08:49:45;102460.19;;;17.61
79714;BMP280;69206;51.420;5.400;2023-05-29T08:52:16;102453.41;;;17.39
79714;BMP280;69206;51.420;5.400;2023-05-29T08:54:42;102430.84;;;17.26
79714;BMP280;69206;51.420;5.400;2023-05-29T08:57:08;102456.38;;;17.63
79714;BMP280;69206;51.420;5.400;2023-05-29T08:59:36;102462.97;;;17.86
79714;BMP280;69206;51.420;5.400;2023-05-29T09:02:02;102461.28;;;17.85
79714;BMP280;69206;51.420;5.400;2023-05-29T09:04:28;102427.44;;;17.87
79714;BMP280;69206;51.420;5.400;2023-05-29T09:06:55;102476.53;;;18.28
79714;BMP280;69206;51.420;5.400;2023-05-29T09:09:22;102470.63;;;18.59
79714;BMP280;69206;51.420;5.400;2023-05-29T09:11:49;102472.25;;;18.52
79714;BMP280;69206;51.420;5.400;2023-05-29T09:16:59;102441.56;;;18.58
79714;BMP280;69206;51.420;5.400;2023-05-29T09:19:25;102475.72;;;18.70
79714;BMP280;69206;51.420;5.400;2023-05-29T09:21:51;102412.56;;;18.29
79714;BMP280;69206;51.420;5.400;2023-05-29T09:24:16;102477.66;;;18.43
79714;BMP280;69206;51.420;5.400;2023-05-29T09:26:51;102473.38;;;18.50
79714;BMP280;69206;51.420;5.400;2023-05-29T09:29:16;102443.41;;;18.57
79714;BMP280;69206;51.420;5.400;2023-05-29T09:31:48;102464.84;;;18.64
79714;BMP280;69206;51.420;5.400;2023-05-29T09:34:14;102468.19;;;18.91
79714;BMP280;69206;51.420;5.400;2023-05-29T09:36:40;102474.59;;;18.73
79714;BMP280;69206;51.420;5.400;2023-05-29T09:39:06;102442.41;;;19.17
79714;BMP280;69206;51.420;5.400;2023-05-29T09:41:41;102452.03;;;19.10
79714;BMP280;69206;51.420;5.400;2023-05-29T09:44:06;102425.75;;;19.07
79714;BMP280;69206;51.420;5.400;2023-05-29T09:46:35;102459.09;;;19.19
79714;BMP280;69206;51.420;5.400;2023-05-29T09:49:02;102422.31;;;18.89
79714;BMP280;69206;51.420;5.400;2023-05-29T09:51:28;102465.94;;;18.96
79714;BMP280;69206;51.420;5.400;2023-05-29T09:53:55;102462.50;;;18.78
79714;BMP280;69206;51.420;5.400;2023-05-29T09:56:23;102467.66;;;19.38
79714;BMP280;69206;51.420;5.400;2023-05-29T09:58:50;102459.53;;;19.56
79714;BMP280;69206;51.420;5.400;2023-05-29T10:01:16;102456.16;;;19.95
79714;BMP280;69206;51.420;5.400;2023-05-29T10:03:43;102458.66;;;19.97
79714;BMP280;69206;51.420;5.400;2023-05-29T10:06:11;102446.59;;;19.77
79714;BMP280;69206;51.420;5.400;2023-05-29T10:08:45;102457.88;;;19.55
79714;BMP280;69206;51.420;5.400;2023-05-29T10:11:14;102444.88;;;19.52
79714;BMP280;69206;51.420;5.400;2023-05-29T10:13:42;102454.69;;;19.43
79714;BMP280;69206;51.420;5.400;2023-05-29T10:16:14;102437.97;;;19.75
79714;BMP280;69206;51.420;5.400;2023-05-29T10:18:43;102438.31;;;19.88
79714;BMP280;69206;51.420;5.400;2023-05-29T10:21:11;102439.31;;;20.35
79714;BMP280;69206;51.420;5.400;2023-05-29T10:23:38;102433.84;;;20.36
79714;BMP280;69206;51.420;5.400;2023-05-29T10:26:10;102440.34;;;20.42
79714;BMP280;69206;51.420;5.400;2023-05-29T10:28:39;102412.34;;;20.38
79714;BMP280;69206;51.420;5.400;2023-05-29T10:31:16;102446.66;;;20.57
79714;BMP280;69206;51.420;5.400;2023-05-29T10:36:44;102434.97;;;20.66
79714;BMP280;69206;51.420;5.400;2023-05-29T10:39:12;102432.34;;;20.58
79714;BMP280;69206;51.420;5.400;2023-05-29T10:41:38;102442.84;;;20.19
79714;BMP280;69206;51.420;5.400;2023-05-29T10:47:03;102433.22;;;20.97
79714;BMP280;69206;51.420;5.400;2023-05-29T10:49:29;102430.03;;;21.31
79714;BMP280;69206;51.420;5.400;2023-05-29T10:51:57;102436.56;;;20.99
79714;BMP280;69206;51.420;5.400;2023-05-29T10:54:24;102419.84;;;20.18
79714;BMP280;69206;51.420;5.400;2023-05-29T10:56:58;102427.97;;;20.65
79714;BMP280;69206;51.420;5.400;2023-05-29T10:59:24;102426.34;;;20.24
79714;BMP280;69206;51.420;5.400;2023-05-29T11:01:54;102438.25;;;20.84
79714;BMP280;69206;51.420;5.400;2023-05-29T11:06:46;102385.19;;;20.89
79714;BMP280;69206;51.420;5.400;2023-05-29T11:14:56;102424.25;;;20.82
79714;BMP280;69206;51.420;5.400;2023-05-29T11:20:01;102424.53;;;21.33
79714;BMP280;69206;51.420;5.400;2023-05-29T11:22:56;102401.94;;;21.43
79714;BMP280;69206;51.420;5.400;2023-05-29T11:25:19;102411.97;;;21.41
79714;BMP280;69206;51.420;5.400;2023-05-29T11:27:45;102410.53;;;21.61
79714;BMP280;69206;51.420;5.400;2023-05-29T11:30:11;102411.13;;;21.86
79714;BMP280;69206;51.420;5.400;2023-05-29T11:32:38;102403.19;;;21.78
79714;BMP280;69206;51.420;5.400;2023-05-29T11:35:07;102410.94;;;21.95
79714;BMP280;69206;51.420;5.400;2023-05-29T11:37:35;102406.16;;;21.83
79714;BMP280;69206;51.420;5.400;2023-05-29T11:40:03;102390.88;;;21.91
79714;BMP280;69206;51.420;5.400;2023-05-29T11:42:30;102405.72;;;22.31
79714;BMP280;69206;51.420;5.400;2023-05-29T11:45:09;102379.56;;;21.67
79714;BMP280;69206;51.420;5.400;2023-05-29T11:47:58;102398.91;;;21.69
79714;BMP280;69206;51.420;5.400;2023-05-29T11:50:27;102410.53;;;21.98
79714;BMP280;69206;51.420;5.400;2023-05-29T11:52:54;102382.69;;;21.93
79714;BMP280;69206;51.420;5.400;2023-05-29T11:55:21;102391.78;;;22.06
79714;BMP280;69206;51.420;5.400;2023-05-29T11:57:48;102370.41;;;21.84
79714;BMP280;69206;51.420;5.400;2023-05-29T12:00:18;102401.19;;;22.17
79714;BMP280;69206;51.420;5.400;2023-05-29T12:02:45;102401.91;;;21.96
79714;BMP280;69206;51.420;5.400;2023-05-29T12:05:14;102403.72;;;21.81
79714;BMP280;69206;51.420;5.400;2023-05-29T12:07:51;102404.97;;;21.85
79714;BMP280;69206;51.420;5.400;2023-05-29T12:10:20;102409.47;;;22.07
79714;BMP280;69206;51.420;5.400;2023-05-29T12:12:54;102365.78;;;21.55
79714;BMP280;69206;51.420;5.400;2023-05-29T12:15:20;102402.34;;;22.00
79714;BMP280;69206;51.420;5.400;2023-05-29T12:17:47;102356.63;;;22.09
79714;BMP280;69206;51.420;5.400;2023-05-29T12:20:14;102386.97;;;22.16
79714;BMP280;69206;51.420;5.400;2023-05-29T12:22:41;102383.88;;;22.56
79714;BMP280;69206;51.420;5.400;2023-05-29T12:25:19;102393.28;;;22.81
79714;BMP280;69206;51.420;5.400;2023-05-29T12:27:47;102390.59;;;22.81
79714;BMP280;69206;51.420;5.400;2023-05-29T12:30:20;102385.03;;;22.97
79714;BMP280;69206;51.420;5.400;2023-05-29T12:32:50;102387.69;;;22.97
79714;BMP280;69206;51.420;5.400;2023-05-29T12:35:19;102384.47;;;23.37
79714;BMP280;69206;51.420;5.400;2023-05-29T12:37:52;102372.03;;;23.29
79714;BMP280;69206;51.420;5.400;2023-05-29T12:40:26;102382.16;;;23.55
79714;BMP280;69206;51.420;5.400;2023-05-29T12:43:06;102389.69;;;23.24
79714;BMP280;69206;51.420;5.400;2023-05-29T12:45:32;102378.72;;;23.04
79714;BMP280;69206;51.420;5.400;2023-05-29T12:48:03;102390.56;;;23.10
79714;BMP280;69206;51.420;5.400;2023-05-29T12:50:31;102365.94;;;23.21
79714;BMP280;69206;51.420;5.400;2023-05-29T12:53:08;102360.41;;;23.08
79714;BMP280;69206;51.420;5.400;2023-05-29T12:58:11;102381.22;;;22.70
79714;BMP280;69206;51.420;5.400;2023-05-29T13:00:39;102347.59;;;22.53
79714;BMP280;69206;51.420;5.400;2023-05-29T13:03:06;102366.44;;;22.74
79714;BMP280;69206;51.420;5.400;2023-05-29T13:05:32;102385.66;;;22.12
79714;BMP280;69206;51.420;5.400;2023-05-29T13:07:58;102381.69;;;22.59
79714;BMP280;69206;51.420;5.400;2023-05-29T13:10:25;102374.19;;;22.69
79714;BMP280;69206;51.420;5.400;2023-05-29T13:12:51;102381.09;;;22.64
79714;BMP280;69206;51.420;5.400;2023-05-29T13:15:21;102381.28;;;22.77
79714;BMP280;69206;51.420;5.400;2023-05-29T13:17:46;102377.59;;;22.49
79714;BMP280;69206;51.420;5.400;2023-05-29T13:20:12;102387.41;;;22.71
79714;BMP280;69206;51.420;5.400;2023-05-29T13:22:39;102390.69;;;22.87
79714;BMP280;69206;51.420;5.400;2023-05-29T13:25:06;102344.75;;;22.12
79714;BMP280;69206;51.420;5.400;2023-05-29T13:27:33;102384.22;;;22.53
79714;BMP280;69206;51.420;5.400;2023-05-29T13:30:00;102386.41;;;22.21
79714;BMP280;69206;51.420;5.400;2023-05-29T13:32:25;102391.06;;;22.70
79714;BMP280;69206;51.420;5.400;2023-05-29T13:34:51;102349.00;;;22.99
79714;BMP280;69206;51.420;5.400;2023-05-29T13:37:16;102380.38;;;23.41
79714;BMP280;69206;51.420;5.400;2023-05-29T13:39:42;102378.25;;;23.01
79714;BMP280;69206;51.420;5.400;2023-05-29T13:42:08;102350.56;;;22.94
79714;BMP280;69206;51.420;5.400;2023-05-29T13:44:34;102391.72;;;23.22
79714;BMP280;69206;51.420;5.400;2023-05-29T13:46:59;102393.81;;;23.26
79714;BMP280;69206;51.420;5.400;2023-05-29T13:49:25;102362.31;;;23.07
79714;BMP280;69206;51.420;5.400;2023-05-29T13:51:51;102388.53;;;23.33
79714;BMP280;69206;51.420;5.400;2023-05-29T13:54:16;102383.03;;;22.70
79714;BMP280;69206;51.420;5.400;2023-05-29T13:56:45;102392.97;;;22.18
79714;BMP280;69206;51.420;5.400;2023-05-29T13:59:10;102386.34;;;22.57
79714;BMP280;69206;51.420;5.400;2023-05-29T14:01:36;102389.94;;;22.79
79714;BMP280;69206;51.420;5.400;2023-05-29T14:04:01;102349.13;;;22.42
79714;BMP280;69206;51.420;5.400;2023-05-29T14:06:27;102377.91;;;23.04
79714;BMP280;69206;51.420;5.400;2023-05-29T14:08:52;102381.56;;;22.82
79714;BMP280;69206;51.420;5.400;2023-05-29T14:11:18;102358.75;;;23.21
79714;BMP280;69206;51.420;5.400;2023-05-29T14:13:44;102381.00;;;23.43
79714;BMP280;69206;51.420;5.400;2023-05-29T14:16:09;102332.69;;;23.57
79714;BMP280;69206;51.420;5.400;2023-05-29T14:18:35;102363.00;;;23.37
79714;BMP280;69206;51.420;5.400;2023-05-29T14:21:00;102370.41;;;23.35